createdAt,value
2023-04-10T10:02:41.361Z,18.28
2023-04-10T10:03:41.897Z,18.38
2023-04-10T10:04:41.881Z,18.38
2023-04-10T10:05:41.899Z,18.49
2023-04-10T10:06:41.841Z,18.54
2023-04-10T10:07:41.886Z,18.47
2023-04-10T10:08:41.820Z,18.56
2023-04-10T10:09:41.814Z,18.49
2023-04-10T10:10:41.785Z,18.44
2023-04-10T10:11:41.820Z,18.38
2023-04-10T10:12:41.774Z,18.46
2023-04-10T10:13:41.802Z,18.64
2023-04-10T10:14:41.750Z,18.82
2023-04-10T10:15:41.774Z,18.86
2023-04-10T10:16:41.888Z,18.75
2023-04-10T10:17:41.789Z,18.87
2023-04-10T10:18:41.748Z,18.93
2023-04-10T10:19:41.688Z,19.02
2023-04-10T10:20:41.720Z,19.07
2023-04-10T10:21:41.684Z,19.16
2023-04-10T10:22:41.676Z,19.01
2023-04-10T10:23:41.664Z,18.93
2023-04-10T10:24:41.657Z,18.90
2023-04-10T10:25:41.643Z,18.76
2023-04-10T10:26:41.613Z,18.87
2023-04-10T10:27:41.628Z,18.79
2023-04-10T10:28:41.627Z,18.86
2023-04-10T10:29:41.564Z,19.05
2023-04-10T10:30:41.588Z,19.09
2023-04-10T10:31:41.603Z,18.69
2023-04-10T10:32:41.589Z,18.34
2023-04-10T10:33:41.572Z,18.16
2023-04-10T10:34:41.538Z,18.11
2023-04-10T10:35:41.540Z,18.28
2023-04-10T10:36:41.605Z,18.49
2023-04-10T10:37:41.490Z,18.59
2023-04-10T10:38:41.542Z,18.86
2023-04-10T10:39:41.470Z,18.97
2023-04-10T10:40:41.509Z,19.01
2023-04-10T10:41:41.451Z,19.30
2023-04-10T10:42:41.525Z,19.57
2023-04-10T10:43:41.499Z,19.85
2023-04-10T10:44:41.446Z,20.04
2023-04-10T10:45:41.456Z,20.20
2023-04-10T10:46:41.385Z,20.34
2023-04-10T10:47:41.527Z,20.41
2023-04-10T10:48:41.447Z,20.16
2023-04-10T10:49:41.371Z,19.82
2023-04-10T10:50:41.376Z,19.62
2023-04-10T10:51:41.331Z,19.55
2023-04-10T10:52:41.332Z,19.58
2023-04-10T10:53:41.351Z,19.64
2023-04-10T10:54:47.330Z,19.64
2023-04-10T10:55:41.349Z,19.68
2023-04-10T10:56:41.319Z,19.80
2023-04-10T10:57:41.300Z,19.64
2023-04-10T10:58:41.293Z,19.60
2023-04-10T10:59:41.259Z,19.71
2023-04-10T11:00:41.305Z,19.85
2023-04-10T11:01:41.396Z,19.98
2023-04-10T11:02:41.361Z,20.08
2023-04-10T11:03:41.276Z,20.01
2023-04-10T11:04:41.198Z,20.17
2023-04-10T11:05:41.186Z,20.12
2023-04-10T11:06:42.868Z,20.13
2023-04-10T11:07:41.142Z,20.01
2023-04-10T11:08:41.177Z,19.85
2023-04-10T11:09:41.143Z,19.94
2023-04-10T11:10:41.141Z,20.04
2023-04-10T11:11:41.116Z,20.16
2023-04-10T11:12:41.119Z,20.12
2023-04-10T11:13:41.145Z,19.92
2023-04-10T11:14:41.146Z,19.95
2023-04-10T11:15:41.071Z,19.72
2023-04-10T11:16:41.168Z,19.58
2023-04-10T11:17:41.074Z,19.47
2023-04-10T11:18:41.068Z,19.49
2023-04-10T11:19:41.011Z,19.45
2023-04-10T11:20:41.012Z,19.32
2023-04-10T11:21:40.984Z,19.38
2023-04-10T11:22:40.992Z,19.21
2023-04-10T11:23:41.011Z,19.15
2023-04-10T11:24:41.058Z,19.25
2023-04-10T11:25:40.969Z,19.47
2023-04-10T11:26:40.958Z,19.76
2023-04-10T11:27:40.962Z,20.00
2023-04-10T11:28:40.993Z,20.20
2023-04-10T11:29:40.932Z,20.23
2023-04-10T11:30:40.888Z,19.95
2023-04-10T11:31:40.889Z,20.00
2023-04-10T11:32:40.948Z,20.23
2023-04-10T11:33:40.854Z,20.26
2023-04-10T11:34:40.853Z,20.26
2023-04-10T11:35:40.870Z,20.41
2023-04-10T11:36:40.873Z,20.61
2023-04-10T11:37:40.833Z,20.73
2023-04-10T11:38:40.820Z,20.71
2023-04-10T11:39:40.790Z,20.61
2023-04-10T11:40:40.762Z,20.15
2023-04-10T11:41:40.759Z,20.12
2023-04-10T11:42:40.815Z,20.25
2023-04-10T11:43:40.868Z,20.20
2023-04-10T11:44:41.512Z,20.34
2023-04-10T11:45:40.737Z,20.44
2023-04-10T11:46:40.691Z,20.58
2023-04-10T11:47:40.730Z,20.56
2023-04-10T11:48:40.715Z,20.64
2023-04-10T11:49:40.703Z,20.41
2023-04-10T11:50:40.661Z,19.92
2023-04-10T11:51:40.667Z,19.94
2023-04-10T11:52:40.753Z,19.95
2023-04-10T11:53:40.662Z,20.10
2023-04-10T11:54:40.675Z,20.26
2023-04-10T11:55:40.611Z,20.51
2023-04-10T11:56:40.612Z,20.64
2023-04-10T11:57:40.567Z,20.81
2023-04-10T11:58:40.624Z,20.88
2023-04-10T11:59:40.620Z,21.00
2023-04-10T12:00:40.567Z,21.08
2023-04-10T12:01:42.716Z,21.05
2023-04-10T12:02:40.777Z,20.76
2023-04-10T12:03:40.682Z,20.25
2023-04-10T12:04:40.684Z,20.37
2023-04-10T12:05:40.543Z,20.61
2023-04-10T12:06:40.511Z,20.83
2023-04-10T12:07:40.478Z,21.03
2023-04-10T12:08:40.600Z,21.22
2023-04-10T12:09:40.459Z,21.19
2023-04-10T12:10:40.579Z,20.94
2023-04-10T12:11:40.940Z,20.90
2023-04-10T12:12:40.449Z,21.00
2023-04-10T12:13:40.455Z,20.98
2023-04-10T12:14:40.381Z,20.96
2023-04-10T12:15:40.421Z,21.12
2023-04-10T12:16:40.387Z,21.12
2023-04-10T12:17:40.366Z,20.97
2023-04-10T12:18:40.413Z,21.06
2023-04-10T12:19:40.333Z,21.13
2023-04-10T12:20:40.363Z,21.30
2023-04-10T12:21:40.286Z,21.24
2023-04-10T12:22:40.329Z,21.24
2023-04-10T12:23:40.281Z,21.06
2023-04-10T12:24:40.331Z,21.22
2023-04-10T12:25:40.268Z,21.36
2023-04-10T12:26:40.262Z,21.38
2023-04-10T12:27:40.246Z,21.55
2023-04-10T12:28:40.255Z,21.64
2023-04-10T12:29:40.273Z,21.33
2023-04-10T12:30:40.214Z,21.45
2023-04-10T12:31:40.351Z,21.36
2023-04-10T12:32:40.260Z,21.26
2023-04-10T12:33:40.287Z,21.12
2023-04-10T12:34:40.202Z,21.36
2023-04-10T12:35:40.211Z,21.58
2023-04-10T12:36:40.185Z,21.81
2023-04-10T12:37:40.156Z,22.06
2023-04-10T12:38:40.113Z,22.24
2023-04-10T12:39:40.126Z,22.35
2023-04-10T12:40:40.152Z,22.36
2023-04-10T12:41:40.085Z,22.39
2023-04-10T12:42:40.111Z,22.42
2023-04-10T12:43:40.100Z,22.57
2023-04-10T12:44:40.084Z,22.67
2023-04-10T12:45:40.068Z,22.74
2023-04-10T12:46:40.127Z,22.93
2023-04-10T12:47:40.118Z,22.97
2023-04-10T12:48:40.010Z,22.81
2023-04-10T12:49:40.049Z,22.61
2023-04-10T12:50:40.028Z,22.69
2023-04-10T12:51:39.998Z,22.70
2023-04-10T12:52:39.945Z,22.63
2023-04-10T12:53:39.966Z,22.46
2023-04-10T12:54:39.947Z,22.49
2023-04-10T12:55:39.944Z,22.31
2023-04-10T12:56:39.918Z,22.23
2023-04-10T12:57:39.960Z,22.05
2023-04-10T12:58:39.960Z,22.02
2023-04-10T12:59:39.965Z,21.70
2023-04-10T13:00:39.876Z,21.49
2023-04-10T13:01:39.958Z,21.53
2023-04-10T13:02:40.177Z,21.56
2023-04-10T13:03:39.970Z,21.51
2023-04-10T13:04:40.005Z,21.12
2023-04-10T13:05:39.820Z,21.00
2023-04-10T13:06:39.794Z,21.18
2023-04-10T13:07:39.850Z,21.38
2023-04-10T13:08:39.835Z,21.53
2023-04-10T13:09:39.785Z,21.73
2023-04-10T13:10:39.809Z,21.94
2023-04-10T13:11:39.766Z,21.99
2023-04-10T13:12:39.755Z,21.46
2023-04-10T13:13:39.732Z,21.46
2023-04-10T13:14:39.726Z,21.42
2023-04-10T13:15:39.709Z,21.63
2023-04-10T13:16:39.760Z,21.49
2023-04-10T13:17:39.748Z,21.49
2023-04-10T13:18:39.666Z,21.63
2023-04-10T13:19:39.692Z,21.67
2023-04-10T13:20:39.663Z,21.89
2023-04-10T13:21:39.683Z,22.01
2023-04-10T13:22:39.645Z,21.93
2023-04-10T13:23:39.631Z,22.19
2023-04-10T13:24:39.618Z,22.17
2023-04-10T13:25:39.768Z,21.91
2023-04-10T13:26:39.572Z,21.96
2023-04-10T13:27:39.557Z,22.26
2023-04-10T13:28:39.598Z,22.48
2023-04-10T13:29:40.724Z,22.54
2023-04-10T13:30:39.539Z,22.38
2023-04-10T13:31:39.563Z,22.06
2023-04-10T13:32:39.586Z,21.75
2023-04-10T13:33:39.553Z,21.94
2023-04-10T13:34:39.569Z,21.81
2023-04-10T13:35:39.482Z,22.08
2023-04-10T13:36:39.526Z,22.42
2023-04-10T13:37:39.459Z,22.70
2023-04-10T13:38:39.439Z,22.78
2023-04-10T13:39:39.472Z,22.42
2023-04-10T13:40:39.436Z,22.45
2023-04-10T13:41:39.405Z,22.69
2023-04-10T13:42:41.926Z,22.75
2023-04-10T13:43:39.428Z,22.70
2023-04-10T13:44:39.620Z,22.44
2023-04-10T13:45:39.392Z,22.30
2023-04-10T13:46:39.440Z,22.08
2023-04-10T13:47:39.389Z,22.01
2023-04-10T13:48:40.761Z,21.67
2023-04-10T13:49:39.318Z,21.38
2023-04-10T13:50:39.337Z,21.48
2023-04-10T13:51:39.309Z,21.13
2023-04-10T13:52:39.338Z,21.06
2023-04-10T13:53:39.283Z,20.90
2023-04-10T13:54:39.391Z,20.94
2023-04-10T13:55:39.277Z,21.09
2023-04-10T13:56:39.259Z,21.26
2023-04-10T13:57:39.252Z,21.18
2023-04-10T13:58:40.089Z,21.18
2023-04-10T13:59:39.592Z,21.31
2023-04-10T14:00:39.245Z,21.31
2023-04-10T14:01:39.224Z,21.43
2023-04-10T14:02:39.265Z,21.56
2023-04-10T14:03:39.325Z,21.59
2023-04-10T14:04:39.210Z,21.59
2023-04-10T14:05:39.177Z,21.55
2023-04-10T14:06:39.183Z,21.13
2023-04-10T14:07:39.184Z,20.94
2023-04-10T14:08:39.136Z,20.94
2023-04-10T14:09:39.131Z,20.66
2023-04-10T14:10:39.123Z,20.57
2023-04-10T14:11:39.105Z,20.48
2023-04-10T14:12:39.057Z,20.30
2023-04-10T14:13:39.094Z,20.27
2023-04-10T14:14:39.100Z,20.31
2023-04-10T14:15:39.061Z,20.27
2023-04-10T14:16:39.075Z,20.26
2023-04-10T14:17:39.018Z,20.16
2023-04-10T14:18:39.003Z,20.17
2023-04-10T14:19:39.137Z,20.05
2023-04-10T14:20:38.976Z,19.90
2023-04-10T14:21:38.975Z,19.92
2023-04-10T14:22:38.987Z,19.94
2023-04-10T14:23:38.939Z,19.98
2023-04-10T14:24:39.124Z,20.00
2023-04-10T14:25:38.981Z,19.95
2023-04-10T14:26:38.922Z,19.62
2023-04-10T14:27:38.955Z,19.61
2023-04-10T14:28:38.905Z,19.52
2023-04-10T14:29:44.738Z,19.43
2023-04-10T14:30:38.916Z,19.52
2023-04-10T14:31:50.530Z,19.58
2023-04-10T14:32:38.921Z,19.50
2023-04-10T14:33:38.858Z,19.42
2023-04-10T14:34:38.860Z,19.32
2023-04-10T14:35:39.642Z,19.39
2023-04-10T14:36:38.814Z,19.39
2023-04-10T14:37:38.851Z,19.42
2023-04-10T14:38:38.788Z,19.39
2023-04-10T14:39:38.850Z,19.38
2023-04-10T14:40:38.788Z,19.27
2023-04-10T14:41:38.748Z,19.20
2023-04-10T14:42:38.776Z,19.20
2023-04-10T14:43:38.723Z,19.25
2023-04-10T14:44:38.741Z,19.28
2023-04-10T14:45:38.689Z,19.32
2023-04-10T14:46:38.692Z,19.35
2023-04-10T14:47:38.752Z,19.32
2023-04-10T14:48:38.714Z,19.32
2023-04-10T14:49:38.729Z,19.30
2023-04-10T14:50:38.656Z,19.32
2023-04-10T14:51:38.656Z,19.40
2023-04-10T14:52:38.610Z,19.32
2023-04-10T14:53:38.661Z,19.32
2023-04-10T14:54:38.715Z,19.25
2023-04-10T14:55:38.600Z,19.21
2023-04-10T14:56:38.575Z,19.12
2023-04-10T14:57:38.618Z,19.16
2023-04-10T14:58:39.109Z,19.20
2023-04-10T14:59:38.608Z,19.23
2023-04-10T15:00:38.540Z,19.24
2023-04-10T15:01:38.593Z,19.24
2023-04-10T15:02:38.674Z,19.06
2023-04-10T15:03:38.666Z,19.01
2023-04-10T15:04:38.582Z,19.01
2023-04-10T15:05:38.568Z,19.06
2023-04-10T15:06:38.499Z,18.94
2023-04-10T15:07:38.458Z,18.89
2023-04-10T15:08:38.469Z,18.86
2023-04-10T15:09:38.472Z,18.82
2023-04-10T15:10:38.426Z,18.86
2023-04-10T15:11:38.457Z,18.84
2023-04-10T15:12:38.430Z,18.89
2023-04-10T15:13:38.382Z,18.86
2023-04-10T15:14:38.416Z,18.87
2023-04-10T15:15:38.395Z,18.65
2023-04-10T15:16:38.396Z,18.68
2023-04-10T15:17:38.350Z,18.72
2023-04-10T15:18:38.328Z,18.74
2023-04-10T15:19:38.338Z,18.71
2023-04-10T15:20:38.318Z,18.71
2023-04-10T15:21:38.306Z,18.69
2023-04-10T15:22:38.295Z,18.54
2023-04-10T15:23:38.252Z,18.56
2023-04-10T15:24:50.053Z,18.51
2023-04-10T15:25:38.282Z,18.51
2023-04-10T15:26:38.217Z,18.51
2023-04-10T15:27:38.227Z,18.49
2023-04-10T15:28:38.182Z,18.49
2023-04-10T15:29:38.259Z,18.53
2023-04-10T15:30:38.276Z,18.50
2023-04-10T15:31:38.186Z,18.50
2023-04-10T15:32:38.305Z,18.38
2023-04-10T15:33:38.138Z,18.29
2023-04-10T15:34:38.167Z,18.25
2023-04-10T15:35:38.190Z,18.29
2023-04-10T15:36:38.155Z,18.32
2023-04-10T15:37:38.104Z,18.38
2023-04-10T15:38:38.089Z,18.34
2023-04-10T15:39:38.107Z,18.26
2023-04-10T15:40:38.058Z,18.25
2023-04-10T15:41:38.125Z,18.23
2023-04-10T15:42:38.051Z,18.25
2023-04-10T15:43:38.070Z,18.23
2023-04-10T15:44:38.019Z,18.11
2023-04-10T15:45:38.082Z,18.07
2023-04-10T15:46:38.635Z,17.95
2023-04-10T15:47:38.168Z,17.95
2023-04-10T15:48:37.978Z,18.01
2023-04-10T15:49:38.872Z,18.02
2023-04-10T15:50:37.944Z,17.98
2023-04-10T15:51:37.956Z,17.96
2023-04-10T15:52:37.977Z,18.01
2023-04-10T15:53:37.908Z,18.01
2023-04-10T15:54:37.889Z,18.07
2023-04-10T15:55:37.925Z,18.10
2023-04-10T15:56:37.928Z,18.13
2023-04-10T15:57:37.868Z,18.17
2023-04-10T15:58:37.871Z,18.19
2023-04-10T15:59:37.979Z,18.16
2023-04-10T16:00:38.598Z,18.17
2023-04-10T16:01:37.935Z,18.14
2023-04-10T16:02:37.952Z,18.13
2023-04-10T16:03:38.017Z,18.13
2023-04-10T16:04:37.878Z,18.14
2023-04-10T16:05:37.774Z,18.11
2023-04-10T16:06:37.770Z,18.11
2023-04-10T16:07:37.747Z,18.10
2023-04-10T16:08:37.758Z,18.10
2023-04-10T16:09:37.752Z,18.14
2023-04-10T16:10:37.741Z,18.11
2023-04-10T16:11:37.691Z,17.98
2023-04-10T16:12:37.694Z,18.01
2023-04-10T16:13:39.894Z,17.99
2023-04-10T16:14:38.138Z,17.95
2023-04-10T16:15:37.748Z,17.94
2023-04-10T16:16:37.629Z,17.87
2023-04-10T16:17:37.655Z,17.83
2023-04-10T16:18:37.639Z,17.74
2023-04-10T16:19:37.619Z,17.73
2023-04-10T16:20:37.660Z,17.71
2023-04-10T16:21:37.591Z,17.58
2023-04-10T16:22:37.610Z,17.58
2023-04-10T16:23:37.563Z,17.60
2023-04-10T16:24:37.606Z,17.66
2023-04-10T16:25:37.552Z,17.68
2023-04-10T16:26:37.545Z,17.62
2023-04-10T16:27:37.538Z,17.65
2023-04-10T16:28:37.498Z,17.47
2023-04-10T16:29:37.552Z,17.53
2023-04-10T16:30:37.491Z,17.53
2023-04-10T16:31:37.549Z,17.49
2023-04-10T16:32:37.514Z,17.49
2023-04-10T16:33:37.474Z,17.51
2023-04-10T16:34:37.491Z,17.51
2023-04-10T16:35:37.456Z,17.53
2023-04-10T16:36:37.437Z,17.47
2023-04-10T16:37:37.406Z,17.45
2023-04-10T16:38:37.416Z,17.40
2023-04-10T16:39:37.428Z,17.46
2023-04-10T16:40:37.418Z,17.51
2023-04-10T16:41:37.377Z,17.47
2023-04-10T16:42:37.345Z,17.47
2023-04-10T16:43:37.353Z,17.43
2023-04-10T16:44:37.356Z,17.45
2023-04-10T16:45:37.335Z,17.46
2023-04-10T16:46:37.325Z,17.47
2023-04-10T16:47:37.349Z,17.47
2023-04-10T16:48:37.273Z,17.53
2023-04-10T16:49:37.311Z,17.51
2023-04-10T16:50:37.281Z,17.53
2023-04-10T16:51:37.303Z,17.47
2023-04-10T16:52:37.264Z,17.46
2023-04-10T16:53:37.216Z,17.43
2023-04-10T16:54:37.233Z,17.35
2023-04-10T16:55:37.203Z,17.36
2023-04-10T16:56:37.195Z,17.30
2023-04-10T16:57:37.209Z,17.32
2023-04-10T16:58:37.177Z,17.30
2023-04-10T16:59:37.229Z,17.27
2023-04-10T17:00:37.189Z,17.21
2023-04-10T17:01:37.277Z,17.25
2023-04-10T17:02:37.210Z,17.24
2023-04-10T17:03:37.178Z,17.25
2023-04-10T17:04:37.682Z,17.17
2023-04-10T17:05:37.092Z,17.15
2023-04-10T17:06:37.080Z,17.12
2023-04-10T17:07:37.100Z,17.09
2023-04-10T17:08:37.062Z,17.14
2023-04-10T17:09:37.098Z,17.15
2023-04-10T17:10:37.079Z,17.10
2023-04-10T17:11:37.013Z,17.05
2023-04-10T17:12:37.062Z,17.07
2023-04-10T17:13:37.088Z,17.14
2023-04-10T17:14:37.156Z,17.14
2023-04-10T17:15:36.990Z,17.03
2023-04-10T17:16:37.004Z,16.99
2023-04-10T17:17:37.031Z,17.03
2023-04-10T17:18:36.973Z,16.99
2023-04-10T17:19:36.985Z,17.00
2023-04-10T17:20:36.992Z,17.02
2023-04-10T17:21:37.478Z,17.00
2023-04-10T17:22:36.918Z,16.99
2023-04-10T17:23:36.921Z,16.99
2023-04-10T17:24:36.935Z,16.99
2023-04-10T17:25:36.917Z,16.95
2023-04-10T17:26:36.849Z,16.88
2023-04-10T17:27:39.748Z,16.90
2023-04-10T17:28:36.860Z,16.87
2023-04-10T17:29:37.131Z,16.90
2023-04-10T17:30:36.846Z,16.87
2023-04-10T17:31:36.837Z,16.90
2023-04-10T17:32:36.838Z,16.87
2023-04-10T17:33:36.785Z,16.87
2023-04-10T17:34:36.811Z,16.88
2023-04-10T17:35:36.892Z,16.84
2023-04-10T17:36:36.741Z,16.84
2023-04-10T17:37:36.781Z,16.82
2023-04-10T17:38:36.743Z,16.84
2023-04-10T17:39:36.738Z,16.84
2023-04-10T17:40:36.699Z,16.85
2023-04-10T17:41:36.669Z,16.82
2023-04-10T17:42:36.709Z,16.84
2023-04-10T17:43:36.743Z,16.87
2023-04-10T17:44:36.732Z,16.85
2023-04-10T17:45:36.656Z,16.77
2023-04-10T17:46:36.688Z,16.77
2023-04-10T17:47:36.670Z,16.73
2023-04-10T17:48:36.735Z,16.69
2023-04-10T17:49:36.635Z,16.69
2023-04-10T17:50:36.587Z,16.73
2023-04-10T17:51:36.558Z,16.72
2023-04-10T17:52:36.550Z,16.67
2023-04-10T17:53:36.534Z,16.67
2023-04-10T17:54:36.558Z,16.55
2023-04-10T17:55:36.505Z,16.42
2023-04-10T17:56:36.525Z,16.37
2023-04-10T17:57:36.480Z,16.30
2023-04-10T17:58:36.495Z,16.04
2023-04-10T17:59:36.481Z,15.74
2023-04-10T18:00:36.459Z,15.48
2023-04-10T18:01:36.507Z,15.37
2023-04-10T18:02:36.522Z,15.25
2023-04-10T18:03:36.492Z,15.09
2023-04-10T18:04:36.440Z,14.93
2023-04-10T18:05:36.428Z,14.86
2023-04-10T18:06:36.386Z,14.80
2023-04-10T18:07:36.373Z,14.71
2023-04-10T18:08:36.377Z,14.66
2023-04-10T18:09:36.372Z,14.63
2023-04-10T18:10:36.342Z,14.56
2023-04-10T18:11:36.326Z,14.52
2023-04-10T18:12:36.329Z,14.36
2023-04-10T18:13:36.333Z,14.09
2023-04-10T18:14:36.319Z,13.99
2023-04-10T18:15:36.280Z,14.04
2023-04-10T18:16:36.320Z,13.98
2023-04-10T18:17:39.195Z,14.02
2023-04-10T18:18:36.251Z,13.91
2023-04-10T18:19:36.246Z,13.90
2023-04-10T18:20:36.237Z,13.86
2023-04-10T18:21:36.211Z,13.81
2023-04-10T18:22:36.206Z,13.79
2023-04-10T18:23:36.194Z,13.72
2023-04-10T18:24:36.201Z,13.69
2023-04-10T18:25:36.164Z,13.71
2023-04-10T18:26:36.176Z,13.75
2023-04-10T18:27:36.167Z,13.63
2023-04-10T18:28:36.133Z,13.54
2023-04-10T18:29:36.146Z,13.46
2023-04-10T18:30:36.181Z,13.46
2023-04-10T18:31:36.109Z,13.44
2023-04-10T18:32:36.201Z,13.46
2023-04-10T18:33:36.272Z,13.44
2023-04-10T18:34:36.097Z,13.43
2023-04-10T18:35:36.078Z,13.41
2023-04-10T18:36:36.051Z,13.32
2023-04-10T18:37:36.030Z,13.28
2023-04-10T18:38:36.627Z,13.31
2023-04-10T18:39:36.026Z,13.35
2023-04-10T18:40:35.994Z,13.35
2023-04-10T18:41:36.000Z,13.39
2023-04-10T18:42:36.003Z,13.29
2023-04-10T18:43:35.964Z,13.36
2023-04-10T18:44:35.965Z,13.38
2023-04-10T18:45:35.936Z,13.39
2023-04-10T18:46:36.053Z,13.46
2023-04-10T18:47:36.022Z,13.32
2023-04-10T18:48:36.010Z,13.36
2023-04-10T18:49:35.946Z,13.38
2023-04-10T18:50:35.905Z,13.35
2023-04-10T18:51:35.898Z,13.29
2023-04-10T18:52:35.869Z,13.25
2023-04-10T18:53:35.967Z,13.24
2023-04-10T18:54:35.905Z,13.19
2023-04-10T18:55:35.889Z,13.14
2023-04-10T18:56:35.974Z,13.10
2023-04-10T18:57:35.813Z,13.04
2023-04-10T18:58:35.866Z,12.96
2023-04-10T18:59:35.814Z,12.99
2023-04-10T19:00:35.810Z,12.94
2023-04-10T19:01:35.869Z,12.96
2023-04-10T19:02:35.944Z,13.06
2023-04-10T19:03:36.019Z,13.09
2023-04-10T19:04:35.913Z,13.01
2023-04-10T19:05:35.742Z,12.96
2023-04-10T19:06:35.742Z,12.98
2023-04-10T19:07:35.726Z,12.99
2023-04-10T19:08:35.785Z,12.95
2023-04-10T19:09:35.711Z,12.98
2023-04-10T19:10:35.764Z,13.01
2023-04-10T19:11:36.596Z,13.06
2023-04-10T19:12:35.704Z,13.06
2023-04-10T19:13:35.687Z,12.96
2023-04-10T19:14:35.744Z,12.89
2023-04-10T19:15:35.688Z,12.89
2023-04-10T19:16:35.677Z,12.89
2023-04-10T19:17:35.622Z,12.89
2023-04-10T19:18:35.609Z,12.88
2023-04-10T19:19:35.640Z,12.84
2023-04-10T19:20:52.563Z,12.81
2023-04-10T19:21:35.583Z,12.84
2023-04-10T19:22:35.598Z,12.84
2023-04-10T19:23:35.521Z,12.84
2023-04-10T19:24:35.559Z,12.85
2023-04-10T19:25:35.554Z,12.87
2023-04-10T19:26:36.111Z,12.70
2023-04-10T19:27:35.464Z,12.74
2023-04-10T19:28:35.571Z,12.74
2023-04-10T19:29:35.503Z,12.73
2023-04-10T19:30:35.475Z,12.73
2023-04-10T19:31:35.497Z,12.79
2023-04-10T19:32:35.531Z,12.79
2023-04-10T19:33:35.457Z,12.74
2023-04-10T19:34:35.497Z,12.79
2023-04-10T19:35:35.443Z,12.79
2023-04-10T19:36:35.422Z,12.76
2023-04-10T19:37:35.396Z,12.71
2023-04-10T19:38:36.117Z,12.67
2023-04-10T19:39:35.430Z,12.61
2023-04-10T19:40:35.404Z,12.56
2023-04-10T19:41:35.342Z,12.54
2023-04-10T19:42:35.359Z,12.51
2023-04-10T19:43:35.399Z,12.44
2023-04-10T19:44:35.650Z,12.44
2023-04-10T19:45:35.327Z,12.51
2023-04-10T19:46:35.382Z,12.52
2023-04-10T19:47:35.319Z,12.49
2023-04-10T19:48:35.260Z,12.46
2023-04-10T19:49:35.268Z,12.48
2023-04-10T19:50:35.330Z,12.52
2023-04-10T19:51:35.204Z,12.58
2023-04-10T19:52:35.281Z,12.66
2023-04-10T19:53:35.194Z,12.66
2023-04-10T19:54:35.213Z,12.66
2023-04-10T19:55:35.156Z,12.71
2023-04-10T19:56:35.216Z,12.62
2023-04-10T19:57:35.161Z,12.59
2023-04-10T19:58:40.389Z,12.55
2023-04-10T19:59:35.138Z,12.43
2023-04-10T20:00:35.134Z,12.37
2023-04-10T20:01:35.127Z,12.40
2023-04-10T20:02:35.255Z,12.43
2023-04-10T20:03:35.214Z,12.38
2023-04-10T20:04:35.205Z,12.29
2023-04-10T20:05:35.172Z,12.30
2023-04-10T20:06:35.060Z,12.29
2023-04-10T20:07:35.044Z,12.33
2023-04-10T20:08:35.075Z,12.23
2023-04-10T20:09:35.041Z,12.18
2023-04-10T20:10:35.053Z,12.13
2023-04-10T20:11:34.991Z,12.11
2023-04-10T20:12:34.976Z,12.04
2023-04-10T20:13:35.188Z,12.01
2023-04-10T20:14:34.967Z,11.97
2023-04-10T20:15:35.005Z,12.00
2023-04-10T20:16:35.096Z,12.04
2023-04-10T20:17:35.074Z,12.07
2023-04-10T20:18:34.953Z,12.01
2023-04-10T20:19:34.923Z,12.01
2023-04-10T20:20:34.995Z,11.94
2023-04-10T20:21:34.861Z,11.90
2023-04-10T20:22:34.899Z,11.88
2023-04-10T20:23:34.842Z,11.94
2023-04-10T20:24:34.947Z,12.01
2023-04-10T20:25:34.865Z,12.01
2023-04-10T20:26:34.842Z,12.01
2023-04-10T20:27:34.789Z,12.01
2023-04-10T20:28:34.823Z,12.01
2023-04-10T20:29:34.824Z,12.04
2023-04-10T20:30:34.800Z,12.05
2023-04-10T20:31:34.943Z,12.08
2023-04-10T20:32:34.787Z,12.08
2023-04-10T20:33:34.749Z,12.07
2023-04-10T20:34:34.759Z,12.12
2023-04-10T20:35:34.762Z,12.11
2023-04-10T20:36:34.696Z,12.11
2023-04-10T20:37:34.805Z,12.11
2023-04-10T20:38:34.699Z,12.13
2023-04-10T20:39:34.690Z,12.08
2023-04-10T20:40:34.714Z,12.12
2023-04-10T20:41:34.722Z,12.07
2023-04-10T20:42:34.649Z,12.07
2023-04-10T20:43:34.596Z,12.07
2023-04-10T20:44:34.676Z,12.11
2023-04-10T20:45:34.632Z,12.08
2023-04-10T20:46:34.629Z,12.08
2023-04-10T20:47:34.635Z,12.05
2023-04-10T20:48:34.649Z,12.03
2023-04-10T20:49:34.563Z,12.03
2023-04-10T20:50:34.592Z,12.05
2023-04-10T20:51:34.524Z,12.05
2023-04-10T20:52:34.546Z,12.01
2023-04-10T20:53:34.501Z,11.94
2023-04-10T20:54:34.537Z,11.93
2023-04-10T20:55:34.514Z,11.81
2023-04-10T20:56:42.693Z,11.75
2023-04-10T20:57:34.464Z,11.77
2023-04-10T20:58:34.487Z,11.79
2023-04-10T20:59:34.441Z,11.75
2023-04-10T21:00:34.545Z,11.79
2023-04-10T21:01:34.661Z,11.82
2023-04-10T21:02:34.571Z,11.79
2023-04-10T21:03:34.505Z,11.79
2023-04-10T21:04:34.462Z,11.82
2023-04-10T21:05:34.401Z,11.82
2023-04-10T21:06:35.072Z,11.75
2023-04-10T21:07:34.395Z,11.67
2023-04-10T21:08:34.357Z,11.63
2023-04-10T21:09:34.400Z,11.59
2023-04-10T21:10:34.379Z,11.63
2023-04-10T21:11:34.305Z,11.64
2023-04-10T21:12:34.416Z,11.63
2023-04-10T21:13:36.019Z,11.60
2023-04-10T21:14:34.287Z,11.63
2023-04-10T21:15:34.321Z,11.59
2023-04-10T21:16:34.270Z,11.54
2023-04-10T21:17:34.343Z,11.53
2023-04-10T21:18:34.239Z,11.51
2023-04-10T21:19:34.295Z,11.44
2023-04-10T21:20:35.127Z,11.41
2023-04-10T21:21:34.175Z,11.35
2023-04-10T21:22:34.209Z,11.30
2023-04-10T21:23:34.173Z,11.19
2023-04-10T21:24:34.221Z,11.20
2023-04-10T21:25:34.167Z,11.13
2023-04-10T21:26:34.157Z,11.11
2023-04-10T21:27:34.143Z,11.09
2023-04-10T21:28:34.113Z,11.12
2023-04-10T21:29:34.113Z,11.17
2023-04-10T21:30:34.111Z,11.16
2023-04-10T21:31:34.093Z,11.17
2023-04-10T21:32:34.125Z,11.17
2023-04-10T21:33:34.053Z,11.11
2023-04-10T21:34:34.044Z,11.09
2023-04-10T21:35:34.105Z,11.06
2023-04-10T21:36:34.056Z,11.05
2023-04-10T21:37:34.044Z,11.06
2023-04-10T21:38:33.997Z,11.01
2023-04-10T21:39:33.957Z,10.94
2023-04-10T21:40:34.069Z,10.88
2023-04-10T21:41:33.963Z,10.86
2023-04-10T21:42:33.955Z,10.87
2023-04-10T21:43:33.949Z,10.78
2023-04-10T21:44:33.921Z,10.83
2023-04-10T21:45:34.047Z,10.86
2023-04-10T21:46:33.989Z,10.86
2023-04-10T21:47:33.891Z,10.84
2023-04-10T21:48:33.917Z,10.84
2023-04-10T21:49:33.863Z,10.87
2023-04-10T21:50:33.902Z,10.88
2023-04-10T21:51:33.874Z,10.83
2023-04-10T21:52:33.848Z,10.80
2023-04-10T21:53:33.905Z,10.78
2023-04-10T21:54:33.821Z,10.80
2023-04-10T21:55:33.841Z,10.81
2023-04-10T21:56:33.813Z,10.78
2023-04-10T21:57:33.789Z,10.73
2023-04-10T21:58:33.793Z,10.75
2023-04-10T21:59:33.778Z,10.78
2023-04-10T22:00:33.792Z,10.80
2023-04-10T22:01:33.832Z,10.73
2023-04-10T22:02:33.865Z,10.68
2023-04-10T22:03:33.802Z,10.66
2023-04-10T22:04:34.671Z,10.72
2023-04-10T22:05:33.774Z,10.72
2023-04-10T22:06:33.701Z,10.70
2023-04-10T22:07:33.692Z,10.69
2023-04-10T22:08:33.733Z,10.72
2023-04-10T22:09:33.632Z,10.70
2023-04-10T22:10:33.718Z,10.72
2023-04-10T22:11:33.636Z,10.75
2023-04-10T22:12:33.683Z,10.83
2023-04-10T22:13:33.672Z,10.87
2023-04-10T22:14:33.575Z,10.87
2023-04-10T22:15:33.645Z,10.90
2023-04-10T22:16:33.628Z,10.90
2023-04-10T22:17:33.683Z,10.84
2023-04-10T22:18:33.531Z,10.70
2023-04-10T22:19:33.510Z,10.70
2023-04-10T22:20:33.696Z,10.73
2023-04-10T22:21:33.511Z,10.70
2023-04-10T22:22:33.551Z,10.73
2023-04-10T22:23:33.553Z,10.76
2023-04-10T22:24:35.253Z,10.83
2023-04-10T22:25:34.956Z,10.83
2023-04-10T22:26:33.474Z,10.83
2023-04-10T22:27:33.456Z,10.86
2023-04-10T22:28:33.448Z,10.84
2023-04-10T22:29:33.434Z,10.83
2023-04-10T22:30:33.476Z,10.84
2023-04-10T22:31:33.394Z,10.80
2023-04-10T22:32:33.409Z,10.76
2023-04-10T22:33:33.464Z,10.78
2023-04-10T22:34:33.339Z,10.73
2023-04-10T22:35:34.203Z,10.76
2023-04-10T22:36:33.330Z,10.70
2023-04-10T22:37:33.324Z,10.62
2023-04-10T22:38:33.300Z,10.63
2023-04-10T22:39:33.307Z,10.62
2023-04-10T22:40:33.325Z,10.63
2023-04-10T22:41:33.334Z,10.62
2023-04-10T22:42:33.313Z,10.62
2023-04-10T22:43:33.267Z,10.65
2023-04-10T22:44:33.258Z,10.62
2023-04-10T22:45:33.256Z,10.62
2023-04-10T22:46:33.308Z,10.65
2023-04-10T22:47:33.274Z,10.63
2023-04-10T22:48:33.236Z,10.60
2023-04-10T22:49:33.238Z,10.60
2023-04-10T22:50:33.235Z,10.57
2023-04-10T22:51:33.225Z,10.57
2023-04-10T22:52:33.140Z,10.57
2023-04-10T22:53:33.207Z,10.44
2023-04-10T22:54:33.136Z,10.44